createdAt,value
2019-05-01T00:00:57.192Z,6.91
2019-05-01T00:01:57.370Z,6.99
2019-05-01T00:02:57.546Z,7.00
2019-05-01T00:03:57.727Z,6.99
2019-05-01T00:04:58.882Z,7.04
2019-05-01T00:05:58.058Z,6.93
2019-05-01T00:06:58.230Z,6.83
2019-05-01T00:07:58.865Z,6.87
2019-05-01T00:08:59.515Z,6.83
2019-05-01T00:09:58.661Z,6.73
2019-05-01T00:10:58.826Z,6.78
2019-05-01T00:11:58.963Z,6.65
2019-05-01T00:12:59.119Z,6.75
2019-05-01T00:13:59.275Z,6.60
2019-05-01T00:14:59.411Z,6.68
2019-05-01T00:15:59.595Z,6.63
2019-05-01T00:16:59.733Z,6.58
2019-05-01T00:17:59.857Z,6.61
2019-05-01T00:19:00.015Z,6.54
2019-05-01T00:20:00.132Z,6.55
2019-05-01T00:21:00.295Z,6.55
2019-05-01T00:22:00.442Z,6.58
2019-05-01T00:23:00.611Z,6.46
2019-05-01T00:24:00.868Z,6.51
2019-05-01T00:25:01.964Z,6.50
2019-05-01T00:26:01.087Z,6.45
2019-05-01T00:27:01.376Z,6.48
2019-05-01T00:28:02.367Z,6.42
2019-05-01T00:29:01.592Z,6.42
2019-05-01T00:30:01.756Z,6.27
2019-05-01T00:31:01.915Z,6.28
2019-05-01T00:32:02.111Z,6.33
2019-05-01T00:33:02.259Z,6.39
2019-05-01T00:34:02.415Z,6.35
2019-05-01T00:35:02.611Z,6.32
2019-05-01T00:36:03.364Z,6.35
2019-05-01T00:37:02.927Z,6.28
2019-05-01T00:38:03.118Z,6.25
2019-05-01T00:39:03.298Z,6.28
2019-05-01T00:40:03.457Z,6.27
2019-05-01T00:41:04.367Z,6.13
2019-05-01T00:42:03.771Z,6.27
2019-05-01T00:43:03.973Z,6.32
2019-05-01T00:44:04.158Z,6.32
2019-05-01T00:45:04.320Z,6.35
2019-05-01T00:46:04.505Z,6.32
2019-05-01T00:47:04.676Z,6.48
2019-05-01T00:48:04.847Z,6.30
2019-05-01T00:49:05.050Z,6.27
2019-05-01T00:50:05.245Z,6.16
2019-05-01T00:51:05.433Z,6.10
2019-05-01T00:52:05.630Z,6.10
2019-05-01T00:53:06.376Z,6.14
2019-05-01T00:54:06.382Z,6.19
2019-05-01T00:55:06.050Z,6.21
2019-05-01T00:56:06.885Z,6.21
2019-05-01T00:57:06.414Z,6.16
2019-05-01T00:58:06.582Z,5.96
2019-05-01T00:59:06.874Z,5.93
2019-05-01T01:00:06.926Z,5.95
2019-05-01T01:01:07.112Z,5.92
2019-05-01T01:02:07.274Z,5.92
2019-05-01T01:03:07.430Z,5.99
2019-05-01T01:04:07.595Z,5.96
2019-05-01T01:05:07.772Z,5.95
2019-05-01T01:06:07.948Z,5.96
2019-05-01T01:07:08.138Z,5.96
2019-05-01T01:08:08.337Z,5.92
2019-05-01T01:09:08.500Z,5.84
2019-05-01T01:10:08.669Z,5.92
2019-05-01T01:11:08.857Z,5.78
2019-05-01T01:12:09.039Z,5.85
2019-05-01T01:13:09.207Z,5.77
2019-05-01T01:14:09.379Z,5.70
2019-05-01T01:15:09.538Z,5.74
2019-05-01T01:16:09.883Z,5.67
2019-05-01T01:17:10.383Z,5.62
2019-05-01T01:18:10.151Z,5.67
2019-05-01T01:19:10.320Z,5.60
2019-05-01T01:20:10.469Z,5.63
2019-05-01T01:21:10.634Z,5.67
2019-05-01T01:22:10.821Z,5.56
2019-05-01T01:23:10.968Z,5.52
2019-05-01T01:24:11.134Z,5.62
2019-05-01T01:25:11.319Z,5.55
2019-05-01T01:26:11.497Z,5.58
2019-05-01T01:27:11.716Z,5.49
2019-05-01T01:28:11.877Z,5.49
2019-05-01T01:29:12.060Z,5.40
2019-05-01T01:30:12.249Z,5.40
2019-05-01T01:31:12.448Z,5.51
2019-05-01T01:32:12.627Z,5.48
2019-05-01T01:33:12.805Z,5.41
2019-05-01T01:34:12.982Z,5.33
2019-05-01T01:35:13.180Z,5.26
2019-05-01T01:36:13.886Z,5.17
2019-05-01T01:37:13.545Z,5.20
2019-05-01T01:38:13.719Z,5.19
2019-05-01T01:39:13.907Z,5.14
2019-05-01T01:40:14.096Z,5.24
2019-05-01T01:41:14.251Z,5.32
2019-05-01T01:42:14.437Z,5.27
2019-05-01T01:43:14.622Z,5.27
2019-05-01T01:44:14.805Z,5.40
2019-05-01T01:45:14.980Z,5.38
2019-05-01T01:46:15.132Z,5.37
2019-05-01T01:47:15.267Z,5.37
2019-05-01T01:48:15.450Z,5.33
2019-05-01T01:49:15.605Z,5.32
2019-05-01T01:50:15.757Z,5.37
2019-05-01T01:51:15.905Z,5.40
2019-05-01T01:52:16.068Z,5.42
2019-05-01T01:53:16.239Z,5.27
2019-05-01T01:54:16.435Z,5.27
2019-05-01T01:55:16.617Z,5.32
2019-05-01T01:56:17.356Z,5.38
2019-05-01T01:57:18.018Z,5.44
2019-05-01T01:58:17.172Z,5.35
2019-05-01T01:59:17.369Z,5.27
2019-05-01T02:00:17.527Z,5.30
2019-05-01T02:01:17.673Z,5.33
2019-05-01T02:02:17.799Z,5.15
2019-05-01T02:03:17.985Z,5.14
2019-05-01T02:04:18.888Z,5.02
2019-05-01T02:05:18.282Z,5.02
2019-05-01T02:06:18.442Z,5.02
2019-05-01T02:07:18.608Z,5.02
2019-05-01T02:08:18.835Z,4.91
2019-05-01T02:09:19.013Z,4.93
2019-05-01T02:10:19.248Z,5.02
2019-05-01T02:11:19.314Z,5.12
2019-05-01T02:12:19.497Z,5.27
2019-05-01T02:13:19.665Z,5.27
2019-05-01T02:14:19.846Z,5.33
2019-05-01T02:15:20.013Z,5.24
2019-05-01T02:16:20.162Z,5.29
2019-05-01T02:17:20.320Z,5.33
2019-05-01T02:18:20.890Z,5.17
2019-05-01T02:19:20.676Z,5.27
2019-05-01T02:20:21.831Z,5.30
2019-05-01T02:21:20.986Z,5.37
2019-05-01T02:22:21.149Z,5.33
2019-05-01T02:23:21.424Z,5.29
2019-05-01T02:24:21.446Z,5.30
2019-05-01T02:25:21.547Z,5.32
2019-05-01T02:26:21.786Z,5.40
2019-05-01T02:27:22.389Z,5.27
2019-05-01T02:28:22.247Z,5.33
2019-05-01T02:29:22.474Z,5.19
2019-05-01T02:30:22.679Z,5.17
2019-05-01T02:31:28.066Z,5.17
2019-05-01T02:32:25.121Z,5.08
2019-05-01T02:33:23.351Z,5.02
2019-05-01T02:34:23.481Z,4.96
2019-05-01T02:35:23.571Z,4.90
2019-05-01T02:36:23.768Z,4.90
2019-05-01T02:37:23.918Z,4.90
2019-05-01T02:38:24.165Z,4.87
2019-05-01T02:39:24.411Z,4.91
2019-05-01T02:40:24.521Z,5.01
2019-05-01T02:41:24.666Z,5.08
2019-05-01T02:42:24.804Z,5.11
2019-05-01T02:43:24.945Z,5.05
2019-05-01T02:44:25.214Z,5.19
2019-05-01T02:45:25.354Z,5.15
2019-05-01T02:46:25.496Z,5.05
2019-05-01T02:47:25.652Z,5.15
2019-05-01T02:48:25.807Z,5.08
2019-05-01T02:49:25.964Z,5.09
2019-05-01T02:50:26.130Z,5.08
2019-05-01T02:51:26.880Z,5.06
2019-05-01T02:52:26.492Z,5.11
2019-05-01T02:53:26.639Z,5.01
2019-05-01T02:54:26.896Z,4.94
2019-05-01T02:55:27.402Z,4.91
2019-05-01T02:56:27.072Z,4.96
2019-05-01T02:57:27.225Z,5.11
2019-05-01T02:58:27.379Z,5.14
2019-05-01T02:59:27.522Z,5.02
2019-05-01T03:00:27.698Z,5.17
2019-05-01T03:01:44.695Z,4.99
2019-05-01T03:02:30.100Z,4.91
2019-05-01T03:03:28.349Z,4.86
2019-05-01T03:04:28.504Z,4.88
2019-05-01T03:05:28.661Z,4.80
2019-05-01T03:06:28.787Z,4.77
2019-05-01T03:07:28.932Z,4.86
2019-05-01T03:08:29.058Z,4.87
2019-05-01T03:09:29.204Z,4.83
2019-05-01T03:10:29.892Z,4.84
2019-05-01T03:11:29.621Z,4.86
2019-05-01T03:12:29.744Z,4.87
2019-05-01T03:13:29.867Z,4.91
2019-05-01T03:14:29.999Z,4.75
2019-05-01T03:15:30.150Z,4.83
2019-05-01T03:16:30.331Z,4.83
2019-05-01T03:17:30.463Z,4.88
2019-05-01T03:18:30.619Z,4.88
2019-05-01T03:19:30.781Z,4.80
2019-05-01T03:20:30.904Z,4.87
2019-05-01T03:21:31.057Z,4.87
2019-05-01T03:22:31.196Z,4.88
2019-05-01T03:23:31.350Z,4.87
2019-05-01T03:24:31.526Z,4.77
2019-05-01T03:25:31.662Z,4.79
2019-05-01T03:26:31.789Z,4.79
2019-05-01T03:27:31.938Z,4.75
2019-05-01T03:28:32.067Z,4.72
2019-05-01T03:29:32.231Z,4.80
2019-05-01T03:30:32.383Z,4.71
2019-05-01T03:31:32.520Z,4.71
2019-05-01T03:32:32.694Z,4.71
2019-05-01T03:33:33.847Z,4.67
2019-05-01T03:34:33.978Z,4.59
2019-05-01T03:35:33.179Z,4.54
2019-05-01T03:36:34.234Z,4.53
2019-05-01T03:37:33.378Z,4.61
2019-05-01T03:38:34.390Z,4.54
2019-05-01T03:39:33.768Z,4.65
2019-05-01T03:40:33.926Z,4.71
2019-05-01T03:41:34.092Z,4.67
2019-05-01T03:42:34.295Z,4.71
2019-05-01T03:43:34.485Z,4.83
2019-05-01T03:44:34.666Z,4.88
2019-05-01T03:45:34.806Z,4.84
2019-05-01T03:46:34.953Z,4.80
2019-05-01T03:47:35.110Z,4.87
2019-05-01T03:48:35.894Z,4.79
2019-05-01T03:49:35.539Z,4.75
2019-05-01T03:50:35.703Z,4.74
2019-05-01T03:51:35.858Z,4.69
2019-05-01T03:52:36.021Z,4.61
2019-05-01T03:53:36.234Z,4.62
2019-05-01T03:54:36.447Z,4.64
2019-05-01T03:55:36.639Z,4.53
2019-05-01T03:56:36.814Z,4.62
2019-05-01T03:57:37.876Z,4.56
2019-05-01T03:58:37.129Z,4.62
2019-05-01T03:59:37.351Z,4.64
2019-05-01T04:00:38.380Z,4.54
2019-05-01T04:01:37.737Z,4.35
2019-05-01T04:02:37.879Z,4.31
2019-05-01T04:03:38.030Z,4.29
2019-05-01T04:04:38.190Z,4.34
2019-05-01T04:05:38.880Z,4.34
2019-05-01T04:06:38.908Z,4.35
2019-05-01T04:07:38.663Z,4.35
2019-05-01T04:08:38.830Z,4.36
2019-05-01T04:09:39.057Z,4.43
2019-05-01T04:10:39.221Z,4.43
2019-05-01T04:11:39.379Z,4.39
2019-05-01T04:12:39.533Z,4.34
2019-05-01T04:13:39.709Z,4.32
2019-05-01T04:14:39.877Z,4.44
2019-05-01T04:15:40.020Z,4.57
2019-05-01T04:16:40.247Z,4.56
2019-05-01T04:17:40.425Z,4.71
2019-05-01T04:18:40.563Z,4.80
2019-05-01T04:19:40.728Z,4.88
2019-05-01T04:20:40.910Z,5.05
2019-05-01T04:21:41.065Z,5.04
2019-05-01T04:22:41.235Z,5.06
2019-05-01T04:23:41.391Z,5.11
2019-05-01T04:24:41.551Z,5.26
2019-05-01T04:25:41.748Z,5.32
2019-05-01T04:26:42.909Z,5.17
2019-05-01T04:27:42.156Z,5.14
2019-05-01T04:28:42.338Z,5.01
2019-05-01T04:29:42.500Z,5.12
2019-05-01T04:30:42.644Z,5.23
2019-05-01T04:31:42.812Z,5.29
2019-05-01T04:32:52.822Z,5.41
2019-05-01T04:33:45.226Z,5.45
2019-05-01T04:34:43.348Z,5.56
2019-05-01T04:35:43.604Z,5.63
2019-05-01T04:36:44.400Z,5.63
2019-05-01T04:37:43.819Z,5.81
2019-05-01T04:38:43.984Z,5.77
2019-05-01T04:39:45.152Z,5.65
2019-05-01T04:40:44.317Z,5.77
2019-05-01T04:41:45.387Z,5.81
2019-05-01T04:42:44.638Z,5.92
2019-05-01T04:43:45.405Z,5.90
2019-05-01T04:44:45.039Z,5.98
2019-05-01T04:45:45.201Z,5.93
2019-05-01T04:46:46.380Z,5.98
2019-05-01T04:47:45.482Z,5.85
2019-05-01T04:48:45.699Z,5.96
2019-05-01T04:49:45.862Z,5.93
2019-05-01T04:50:46.066Z,5.95
2019-05-01T04:51:46.269Z,5.99
2019-05-01T04:52:46.454Z,6.05
2019-05-01T04:53:46.626Z,6.17
2019-05-01T04:54:46.794Z,6.24
2019-05-01T04:55:46.956Z,6.25
2019-05-01T04:56:47.137Z,6.30
2019-05-01T04:57:47.295Z,6.25
2019-05-01T04:58:47.451Z,6.19
2019-05-01T04:59:47.720Z,6.08
2019-05-01T05:00:48.403Z,6.08
2019-05-01T05:01:47.961Z,6.28
2019-05-01T05:02:48.188Z,6.35
2019-05-01T05:03:48.327Z,6.42
2019-05-01T05:04:49.520Z,6.33
2019-05-01T05:05:48.790Z,6.48
2019-05-01T05:06:48.964Z,6.42
2019-05-01T05:07:49.093Z,6.42
2019-05-01T05:08:49.217Z,6.39
2019-05-01T05:09:49.891Z,6.50
2019-05-01T05:10:50.392Z,6.51
2019-05-01T05:11:49.760Z,6.60
2019-05-01T05:12:49.969Z,6.61
2019-05-01T05:13:50.891Z,6.79
2019-05-01T05:14:50.238Z,6.83
2019-05-01T05:15:50.469Z,6.87
2019-05-01T05:16:50.702Z,6.76
2019-05-01T05:17:50.976Z,6.75
2019-05-01T05:18:51.089Z,6.79
2019-05-01T05:19:51.335Z,6.94
2019-05-01T05:20:51.460Z,6.90
2019-05-01T05:21:51.583Z,6.90
2019-05-01T05:22:51.739Z,6.91
2019-05-01T05:23:51.902Z,6.87
2019-05-01T05:24:52.032Z,6.89
2019-05-01T05:25:52.918Z,6.86
2019-05-01T05:26:52.410Z,6.82
2019-05-01T05:27:52.591Z,6.83
2019-05-01T05:28:52.713Z,6.83
2019-05-01T05:29:52.839Z,6.91
2019-05-01T05:30:52.977Z,6.90
2019-05-01T05:31:53.112Z,6.90
2019-05-01T05:32:53.239Z,6.91
2019-05-01T05:33:54.403Z,6.97
2019-05-01T05:34:53.521Z,7.14
2019-05-01T05:35:54.396Z,7.30
2019-05-01T05:36:53.771Z,7.30
2019-05-01T05:37:54.394Z,7.42
2019-05-01T05:38:54.138Z,7.39
2019-05-01T05:39:54.291Z,7.42
2019-05-01T05:40:54.433Z,7.48
2019-05-01T05:41:54.553Z,7.51
2019-05-01T05:42:54.694Z,7.37
2019-05-01T05:43:54.890Z,7.32
2019-05-01T05:44:55.057Z,7.34
2019-05-01T05:45:55.210Z,7.41
2019-05-01T05:46:55.334Z,7.42
2019-05-01T05:47:55.537Z,7.37
2019-05-01T05:48:55.729Z,7.26
2019-05-01T05:49:56.396Z,7.11
2019-05-01T05:50:56.054Z,7.08
2019-05-01T05:51:56.228Z,7.07
2019-05-01T05:52:56.899Z,7.09
2019-05-01T05:53:57.402Z,7.26
2019-05-01T05:54:56.800Z,7.19
2019-05-01T05:55:56.984Z,7.18
2019-05-01T05:56:57.186Z,7.27
2019-05-01T05:57:57.348Z,7.34
2019-05-01T05:58:57.541Z,7.37
2019-05-01T05:59:57.921Z,7.36
2019-05-01T06:00:57.846Z,7.32
2019-05-01T06:01:58.004Z,7.41
2019-05-01T06:02:58.165Z,7.47
2019-05-01T06:03:58.313Z,7.44
2019-05-01T06:04:58.504Z,7.50
2019-05-01T06:05:58.673Z,7.41
2019-05-01T06:06:58.825Z,7.34
2019-05-01T06:07:59.912Z,7.41
2019-05-01T06:08:59.158Z,7.37
2019-05-01T06:09:59.305Z,7.36
2019-05-01T06:11:00.166Z,7.14
2019-05-01T06:12:04.783Z,7.19
2019-05-01T06:13:00.784Z,7.30
2019-05-01T06:14:00.029Z,7.36
2019-05-01T06:15:06.028Z,7.44
2019-05-01T06:16:02.302Z,7.52
2019-05-01T06:17:00.532Z,7.33
2019-05-01T06:18:04.161Z,7.34
2019-05-01T06:19:01.842Z,7.30
2019-05-01T06:20:00.944Z,7.30
2019-05-01T06:21:02.266Z,7.21
2019-05-01T06:22:04.996Z,7.18
2019-05-01T06:23:03.412Z,7.24
2019-05-01T06:24:06.461Z,7.37
2019-05-01T06:25:03.858Z,7.36
2019-05-01T06:26:02.579Z,7.32
2019-05-01T06:27:03.295Z,7.34
2019-05-01T06:28:02.399Z,7.32
2019-05-01T06:29:02.644Z,7.37
2019-05-01T06:30:06.494Z,7.26
2019-05-01T06:31:04.019Z,7.41
2019-05-01T06:32:03.177Z,7.50
2019-05-01T06:33:04.221Z,7.26
2019-05-01T06:34:05.522Z,7.39
2019-05-01T06:35:04.665Z,7.24
2019-05-01T06:36:03.910Z,7.29
2019-05-01T06:37:05.171Z,7.33
2019-05-01T06:38:04.423Z,7.34
2019-05-01T06:39:06.755Z,7.48
2019-05-01T06:40:06.775Z,7.44
2019-05-01T06:41:04.983Z,7.69
2019-05-01T06:42:05.115Z,7.81
2019-05-01T06:43:05.271Z,7.84
2019-05-01T06:44:07.585Z,7.82
2019-05-01T06:45:06.513Z,7.79
2019-05-01T06:46:06.412Z,7.77
2019-05-01T06:47:05.879Z,7.94
2019-05-01T06:48:06.049Z,7.94
2019-05-01T06:49:07.105Z,7.66
2019-05-01T06:50:07.573Z,7.70
2019-05-01T06:51:07.411Z,7.84
2019-05-01T06:52:06.628Z,7.88
2019-05-01T06:53:06.874Z,7.95
2019-05-01T06:54:11.397Z,7.79
2019-05-01T06:55:08.275Z,7.76
2019-05-01T06:56:08.408Z,7.73
2019-05-01T06:57:07.644Z,7.67
2019-05-01T06:58:08.415Z,7.79
2019-05-01T06:59:08.043Z,7.86
2019-05-01T07:00:09.448Z,7.99
2019-05-01T07:01:08.394Z,7.95
2019-05-01T07:02:08.529Z,8.14
2019-05-01T07:03:10.464Z,8.18
2019-05-01T07:04:09.913Z,7.95
2019-05-01T07:05:14.551Z,7.89
2019-05-01T07:06:14.377Z,7.88
2019-05-01T07:07:24.750Z,7.81
2019-05-01T07:08:23.979Z,8.00
2019-05-01T07:09:11.931Z,7.88
2019-05-01T07:10:11.060Z,7.81
2019-05-01T07:11:10.868Z,7.88
2019-05-01T07:12:12.382Z,7.82
2019-05-01T07:13:10.597Z,7.95
2019-05-01T07:14:11.115Z,7.99
2019-05-01T07:15:12.989Z,8.03
2019-05-01T07:16:11.188Z,8.28
2019-05-01T07:17:13.544Z,8.36
2019-05-01T07:18:12.556Z,8.57
2019-05-01T07:19:11.699Z,8.52
2019-05-01T07:20:16.571Z,8.55
2019-05-01T07:21:13.041Z,8.50
2019-05-01T07:22:12.173Z,8.43
2019-05-01T07:23:12.779Z,8.54
2019-05-01T07:24:13.530Z,8.47
2019-05-01T07:25:13.417Z,8.55
2019-05-01T07:26:13.710Z,8.57
2019-05-01T07:27:13.984Z,8.64
2019-05-01T07:28:13.116Z,8.65
2019-05-01T07:29:13.303Z,8.94
2019-05-01T07:30:15.900Z,9.15
2019-05-01T07:31:15.621Z,9.17
2019-05-01T07:32:15.152Z,8.93
2019-05-01T07:33:16.642Z,8.76
2019-05-01T07:34:16.648Z,8.58
2019-05-01T07:35:15.370Z,8.50
2019-05-01T07:36:16.318Z,8.52
2019-05-01T07:37:15.640Z,8.65
2019-05-01T07:38:14.826Z,8.91
2019-05-01T07:39:15.858Z,9.12
2019-05-01T07:40:15.187Z,9.44
2019-05-01T07:41:15.340Z,9.71
2019-05-01T07:42:15.529Z,9.85
2019-05-01T07:43:18.990Z,9.89
2019-05-01T07:44:16.927Z,9.85
2019-05-01T07:45:16.070Z,9.62
2019-05-01T07:46:18.462Z,9.74
2019-05-01T07:47:18.423Z,9.78
2019-05-01T07:48:16.670Z,9.48
2019-05-01T07:49:17.695Z,8.93
2019-05-01T07:50:18.032Z,8.91
2019-05-01T07:51:17.219Z,8.83
2019-05-01T07:52:18.730Z,9.01
2019-05-01T07:53:17.590Z,8.93
2019-05-01T07:54:17.760Z,8.94
2019-05-01T07:55:20.103Z,9.04
2019-05-01T07:56:18.212Z,9.41
2019-05-01T07:57:18.370Z,9.71
2019-05-01T07:58:18.538Z,9.99
2019-05-01T07:59:22.874Z,10.24
2019-05-01T08:00:20.922Z,10.25
2019-05-01T08:01:20.159Z,10.57
2019-05-01T08:02:19.330Z,10.17
2019-05-01T08:03:20.425Z,10.02
2019-05-01T08:04:35.233Z,10.16
2019-05-01T08:05:20.907Z,10.09
2019-05-01T08:06:21.487Z,9.81
2019-05-01T08:07:21.235Z,10.01
2019-05-01T08:08:20.463Z,10.11
2019-05-01T08:09:20.607Z,10.10
2019-05-01T08:10:21.024Z,10.36
2019-05-01T08:11:21.974Z,10.13
2019-05-01T08:12:23.927Z,9.91
2019-05-01T08:13:22.202Z,9.78
2019-05-01T08:14:21.441Z,9.62
2019-05-01T08:15:22.582Z,9.44
2019-05-01T08:16:23.758Z,9.49
2019-05-01T08:17:21.848Z,9.49
2019-05-01T08:18:24.082Z,9.49
2019-05-01T08:19:24.231Z,9.55
2019-05-01T08:20:22.453Z,9.55
2019-05-01T08:21:26.004Z,9.85
2019-05-01T08:22:23.758Z,10.11
2019-05-01T08:23:22.902Z,10.17
2019-05-01T08:24:24.726Z,10.46
2019-05-01T08:25:24.253Z,10.14
2019-05-01T08:26:23.474Z,10.43
2019-05-01T08:27:23.602Z,10.65
2019-05-01T08:28:27.616Z,10.65
2019-05-01T08:29:23.862Z,10.54
2019-05-01T08:30:24.443Z,10.78
2019-05-01T08:31:27.776Z,10.88
2019-05-01T08:32:25.544Z,10.75
2019-05-01T08:33:24.782Z,10.68
2019-05-01T08:34:25.404Z,10.65
2019-05-01T08:35:26.117Z,10.57
2019-05-01T08:36:25.358Z,10.49
2019-05-01T08:37:27.126Z,10.65
2019-05-01T08:38:29.867Z,10.88
2019-05-01T08:39:26.828Z,11.11
2019-05-01T08:40:26.048Z,11.16
2019-05-01T08:41:27.016Z,11.11
2019-05-01T08:42:28.430Z,11.38
2019-05-01T08:43:26.939Z,11.51
2019-05-01T08:44:29.537Z,11.77
2019-05-01T08:45:28.045Z,11.72
2019-05-01T08:46:27.280Z,11.53
2019-05-01T08:47:27.934Z,11.42
2019-05-01T08:48:30.870Z,11.46
2019-05-01T08:49:28.792Z,11.57
2019-05-01T08:50:27.914Z,11.30
2019-05-01T08:51:29.996Z,11.19
2019-05-01T08:52:30.310Z,11.24
2019-05-01T08:53:28.409Z,11.33
2019-05-01T08:54:28.881Z,11.44
2019-05-01T08:55:29.747Z,11.56
2019-05-01T08:56:28.876Z,11.81
2019-05-01T08:57:50.072Z,11.97
2019-05-01T08:58:29.170Z,12.16
2019-05-01T08:59:29.348Z,12.19
2019-05-01T09:00:30.927Z,12.41
2019-05-01T09:01:31.644Z,12.25
2019-05-01T09:02:29.878Z,12.37
2019-05-01T09:03:30.061Z,12.61
2019-05-01T09:04:32.244Z,12.58
2019-05-01T09:05:33.937Z,12.59
2019-05-01T09:06:34.866Z,12.94
2019-05-01T09:07:33.449Z,12.49
2019-05-01T09:08:32.162Z,12.03
2019-05-01T09:09:33.331Z,11.97
2019-05-01T09:10:32.313Z,12.12
2019-05-01T09:11:31.786Z,12.18
2019-05-01T09:12:32.584Z,12.23
2019-05-01T09:13:31.756Z,12.23
2019-05-01T09:14:35.177Z,12.51
2019-05-01T09:15:33.075Z,12.84
2019-05-01T09:16:32.229Z,13.04
2019-05-01T09:17:32.400Z,13.27
2019-05-01T09:18:32.624Z,13.68
2019-05-01T09:19:32.809Z,13.90
2019-05-01T09:20:34.007Z,13.86
2019-05-01T09:21:37.183Z,13.73
2019-05-01T09:22:34.384Z,13.87
2019-05-01T09:23:34.624Z,13.62
2019-05-01T09:24:34.688Z,13.28
2019-05-01T09:25:35.231Z,13.07
2019-05-01T09:26:35.943Z,13.17
2019-05-01T09:27:34.236Z,13.12
2019-05-01T09:28:36.021Z,12.76
2019-05-01T09:29:35.548Z,13.66
2019-05-01T09:30:35.829Z,13.53
2019-05-01T09:31:35.558Z,14.12
2019-05-01T09:32:36.183Z,14.36
2019-05-01T09:33:35.340Z,13.96
2019-05-01T09:34:35.527Z,14.67
2019-05-01T09:35:40.283Z,15.03
2019-05-01T09:36:36.905Z,15.31
2019-05-01T09:37:36.936Z,15.41
2019-05-01T09:38:36.215Z,14.91
2019-05-01T09:39:36.440Z,14.69
2019-05-01T09:40:36.624Z,15.48
2019-05-01T09:41:38.405Z,15.76
2019-05-01T09:42:37.970Z,15.80
2019-05-01T09:43:37.944Z,16.14
2019-05-01T09:44:37.344Z,16.18
2019-05-01T09:45:37.529Z,16.10
2019-05-01T09:46:37.782Z,15.15
2019-05-01T09:47:37.930Z,14.85
2019-05-01T09:48:38.080Z,15.38
2019-05-01T09:49:38.226Z,14.82
2019-05-01T09:50:38.400Z,15.09
2019-05-01T09:51:42.590Z,14.85
2019-05-01T09:52:39.717Z,14.91
2019-05-01T09:53:41.111Z,14.98
2019-05-01T09:54:43.041Z,14.87
2019-05-01T09:55:40.178Z,14.95
2019-05-01T09:56:39.460Z,15.05
2019-05-01T09:57:41.497Z,15.60
2019-05-01T09:58:40.814Z,15.77
2019-05-01T09:59:40.047Z,15.86
2019-05-01T10:00:40.185Z,15.62
2019-05-01T10:01:40.353Z,15.04
2019-05-01T10:02:42.089Z,15.84
2019-05-01T10:03:41.645Z,16.60
2019-05-01T10:04:40.777Z,17.12
2019-05-01T10:05:42.829Z,17.25
2019-05-01T10:06:42.462Z,17.76
2019-05-01T10:07:41.232Z,18.31
2019-05-01T10:08:42.407Z,18.59
2019-05-01T10:09:42.652Z,18.44
2019-05-01T10:10:42.474Z,17.46
2019-05-01T10:11:42.106Z,18.11
2019-05-01T10:12:47.014Z,17.77
2019-05-01T10:13:44.290Z,17.20
2019-05-01T10:14:42.408Z,17.81
2019-05-01T10:15:42.577Z,18.11
2019-05-01T10:16:42.758Z,18.47
2019-05-01T10:17:42.897Z,18.09
2019-05-01T10:18:43.079Z,17.71
2019-05-01T10:19:43.237Z,17.10
2019-05-01T10:20:43.391Z,16.77
2019-05-01T10:21:43.519Z,16.92
2019-05-01T10:22:43.679Z,16.91
2019-05-01T10:23:47.126Z,17.42
2019-05-01T10:24:45.004Z,18.05
2019-05-01T10:25:48.100Z,18.28
2019-05-01T10:26:46.262Z,17.65
2019-05-01T10:27:45.428Z,17.58
2019-05-01T10:28:45.204Z,17.74
2019-05-01T10:29:45.810Z,16.73
2019-05-01T10:30:45.043Z,16.34
2019-05-01T10:31:46.658Z,17.03
2019-05-01T10:32:46.431Z,17.46
2019-05-01T10:33:45.543Z,18.05
2019-05-01T10:34:45.744Z,17.49
2019-05-01T10:35:45.907Z,17.96
2019-05-01T10:36:49.885Z,17.91
2019-05-01T10:37:48.191Z,18.36
2019-05-01T10:38:46.887Z,18.76
2019-05-01T10:39:50.266Z,18.99
2019-05-01T10:40:48.691Z,18.96
2019-05-01T10:41:47.924Z,18.76
2019-05-01T10:42:46.980Z,18.13
2019-05-01T10:43:47.187Z,18.20
2019-05-01T10:44:47.360Z,18.01
2019-05-01T10:45:47.562Z,17.46
2019-05-01T10:46:47.727Z,17.28
2019-05-01T10:47:47.908Z,17.42
2019-05-01T10:48:48.479Z,17.42
2019-05-01T10:49:48.279Z,17.21
2019-05-01T10:50:48.450Z,17.89
2019-05-01T10:51:48.609Z,18.41
2019-05-01T10:52:48.793Z,18.90
2019-05-01T10:53:48.982Z,19.09
2019-05-01T10:54:49.149Z,18.83
2019-05-01T10:55:49.329Z,19.01
2019-05-01T10:56:49.505Z,18.51
2019-05-01T10:57:49.695Z,18.71
2019-05-01T10:58:49.879Z,18.65
2019-05-01T10:59:50.959Z,18.32
2019-05-01T11:00:50.235Z,18.65
2019-05-01T11:01:50.445Z,18.13
2019-05-01T11:02:50.612Z,18.68
2019-05-01T11:03:50.764Z,18.79
2019-05-01T11:04:50.908Z,18.38
2019-05-01T11:05:56.205Z,17.77
2019-05-01T11:06:53.476Z,17.53
2019-05-01T11:07:51.430Z,16.40
2019-05-01T11:08:51.538Z,16.77
2019-05-01T11:09:51.677Z,17.02
2019-05-01T11:10:51.822Z,16.92
2019-05-01T11:11:52.004Z,17.55
2019-05-01T11:12:52.127Z,17.45
2019-05-01T11:13:52.368Z,17.14
2019-05-01T11:14:52.513Z,17.39
2019-05-01T11:15:52.640Z,17.80
2019-05-01T11:16:53.476Z,17.92
2019-05-01T11:17:52.989Z,18.38
2019-05-01T11:18:53.166Z,18.26
2019-05-01T11:19:53.328Z,18.07
2019-05-01T11:20:53.487Z,18.01
2019-05-01T11:21:53.658Z,18.56
2019-05-01T11:22:53.853Z,18.91
2019-05-01T11:23:54.021Z,18.32
2019-05-01T11:24:54.223Z,18.34
2019-05-01T11:25:54.383Z,18.26
2019-05-01T11:26:54.513Z,18.54
2019-05-01T11:27:54.669Z,19.07
2019-05-01T11:28:55.486Z,18.84
2019-05-01T11:29:54.999Z,17.95
2019-05-01T11:30:55.142Z,18.32
2019-05-01T11:31:55.284Z,19.01
2019-05-01T11:32:55.444Z,19.80
2019-05-01T11:33:56.476Z,19.32
2019-05-01T11:34:55.740Z,19.87
2019-05-01T11:36:08.363Z,19.90
2019-05-01T11:36:57.050Z,19.47
2019-05-01T11:37:56.191Z,19.34
2019-05-01T11:38:56.423Z,19.61
2019-05-01T11:39:57.473Z,20.07
2019-05-01T11:40:56.770Z,20.22
2019-05-01T11:41:56.939Z,20.08
2019-05-01T11:42:57.153Z,19.67
2019-05-01T11:43:57.366Z,19.28
2019-05-01T11:44:57.539Z,19.65
2019-05-01T11:45:57.739Z,20.15
2019-05-01T11:46:57.901Z,20.58
2019-05-01T11:47:58.077Z,20.54
2019-05-01T11:48:58.251Z,20.64
2019-05-01T11:49:58.449Z,20.78
2019-05-01T11:50:58.604Z,21.05
2019-05-01T11:51:58.797Z,20.73
2019-05-01T11:52:58.995Z,19.85
2019-05-01T11:54:02.061Z,20.10
2019-05-01T11:54:59.492Z,20.40
2019-05-01T11:55:59.543Z,20.33
2019-05-01T11:56:59.698Z,20.50
2019-05-01T11:57:59.853Z,20.94
2019-05-01T11:59:00.010Z,21.03
2019-05-01T12:00:00.510Z,21.26
2019-05-01T12:01:00.341Z,21.03
2019-05-01T12:02:02.453Z,21.56
2019-05-01T12:03:01.730Z,20.64
2019-05-01T12:04:01.862Z,20.38
2019-05-01T12:05:01.000Z,20.51
2019-05-01T12:06:01.192Z,20.57
2019-05-01T12:07:01.363Z,20.51
2019-05-01T12:08:01.532Z,19.92
2019-05-01T12:09:01.735Z,20.20
2019-05-01T12:10:01.911Z,20.76
2019-05-01T12:11:02.137Z,21.12
2019-05-01T12:12:02.301Z,20.93
2019-05-01T12:13:02.465Z,20.38
2019-05-01T12:14:02.609Z,20.68
2019-05-01T12:15:03.495Z,21.49
2019-05-01T12:16:02.930Z,20.81
2019-05-01T12:17:03.996Z,21.43
2019-05-01T12:18:03.251Z,21.28
2019-05-01T12:19:03.410Z,21.48
2019-05-01T12:20:03.555Z,20.94
2019-05-01T12:21:03.760Z,20.54
2019-05-01T12:22:03.894Z,20.88
2019-05-01T12:23:04.038Z,21.52
2019-05-01T12:24:04.184Z,21.86
2019-05-01T12:25:04.329Z,21.37
2019-05-01T12:26:04.504Z,21.94
2019-05-01T12:27:04.652Z,22.76
2019-05-01T12:28:04.773Z,22.44
2019-05-01T12:29:04.897Z,22.59
2019-05-01T12:30:05.032Z,22.63
2019-05-01T12:31:05.198Z,22.82
2019-05-01T12:32:05.371Z,22.59
2019-05-01T12:33:05.494Z,22.39
2019-05-01T12:34:06.493Z,21.93
2019-05-01T12:35:05.843Z,22.30
2019-05-01T12:36:06.081Z,22.19
2019-05-01T12:37:06.235Z,21.08
2019-05-01T12:38:06.362Z,21.51
2019-05-01T12:39:06.483Z,21.85
2019-05-01T12:40:06.725Z,20.85
2019-05-01T12:41:07.016Z,21.09
2019-05-01T12:42:07.155Z,22.01
2019-05-01T12:43:07.304Z,22.05
2019-05-01T12:44:07.482Z,21.89
2019-05-01T12:45:07.598Z,22.15
2019-05-01T12:46:07.851Z,22.19
2019-05-01T12:47:08.023Z,22.24
2019-05-01T12:48:08.184Z,22.20
2019-05-01T12:49:08.336Z,21.43
2019-05-01T12:50:08.469Z,21.12
2019-05-01T12:51:08.609Z,21.58
2019-05-01T12:52:10.466Z,21.01
2019-05-01T12:53:10.049Z,20.54
2019-05-01T12:54:09.156Z,20.46
2019-05-01T12:55:10.011Z,20.05
2019-05-01T12:56:10.501Z,19.25
2019-05-01T12:57:09.757Z,19.75
2019-05-01T12:58:09.943Z,19.57
2019-05-01T12:59:10.090Z,19.07
2019-05-01T13:00:10.239Z,20.15
2019-05-01T13:01:10.377Z,20.02
2019-05-01T13:02:10.518Z,20.60
2019-05-01T13:03:10.686Z,20.85
2019-05-01T13:04:11.043Z,21.24
2019-05-01T13:05:11.061Z,20.97
2019-05-01T13:06:14.181Z,21.55
2019-05-01T13:07:11.429Z,21.56
2019-05-01T13:08:11.568Z,21.43
2019-05-01T13:09:11.759Z,21.61
2019-05-01T13:10:11.896Z,21.12
2019-05-01T13:11:12.057Z,21.13